Terminal Aerodrome Forecast
Issued by NWS

Home | Current Version | Previous Version | Text Only | Print | Product List | Glossary On
Versions: 1 2 3 4 5 6 7 8 9 10 11 12 13 14 15 16
000
FTUS45 KLKN 301803 AAA
TAFEKO
TAF AMD
KEKO 301803Z 3018/3118 31025G35KT 1/2SM SN VCTS BKN015CB
     FM301930 31020G30KT 1/4SM +SN OVC015
     FM302100 30020G30KT P6SM -SN SCT020 BKN040
     FM310300 27022G32KT P6SM VCSH SCT025 BKN040=

USA.gov is the U.S. government's official web portal to all federal, state and local government web resources and services.